createdAt,value
2018-12-27T00:00:05.905Z,33.53
2018-12-27T00:02:10.151Z,34.20
2018-12-27T00:04:14.328Z,35.33
2018-12-27T00:06:18.427Z,36.63
2018-12-27T00:08:22.739Z,38.73
2018-12-27T00:10:26.963Z,30.03
2018-12-27T00:12:30.960Z,36.60
2018-12-27T00:14:35.066Z,32.00
2018-12-27T00:16:39.150Z,31.03
2018-12-27T00:18:43.224Z,35.63
2018-12-27T00:20:47.297Z,34.20
2018-12-27T00:22:51.363Z,30.93
2018-12-27T00:24:57.774Z,31.80
2018-12-27T00:27:02.134Z,31.60
2018-12-27T00:29:05.911Z,30.77
2018-12-27T00:31:09.927Z,32.70
2018-12-27T00:33:13.925Z,30.87
2018-12-27T00:35:18.146Z,41.67
2018-12-27T00:37:22.059Z,31.27
2018-12-27T00:39:26.010Z,36.90
2018-12-27T00:41:29.962Z,31.77
2018-12-27T00:43:33.933Z,32.20
2018-12-27T00:45:37.887Z,34.50
2018-12-27T00:47:43.931Z,32.20
2018-12-27T00:49:50.699Z,28.37
2018-12-27T00:51:54.599Z,27.70
2018-12-27T00:53:58.531Z,26.27
2018-12-27T00:56:02.427Z,24.07
2018-12-27T00:58:06.351Z,27.30
2018-12-27T01:00:10.299Z,30.23
2018-12-27T01:02:14.227Z,26.60
2018-12-27T01:04:18.153Z,31.97
2018-12-27T01:06:22.071Z,23.03
2018-12-27T01:08:25.990Z,28.23
2018-12-27T01:10:29.932Z,29.53
2018-12-27T01:12:33.835Z,24.60
2018-12-27T01:14:39.342Z,27.33
2018-12-27T01:16:43.514Z,24.27
2018-12-27T01:18:47.683Z,29.23
2018-12-27T01:20:51.619Z,25.20
2018-12-27T01:22:55.873Z,25.03
2018-12-27T01:24:59.782Z,31.37
2018-12-27T01:27:03.998Z,31.63
2018-12-27T01:29:08.167Z,27.40
2018-12-27T01:31:12.323Z,24.80
2018-12-27T01:33:18.908Z,25.60
2018-12-27T01:35:21.883Z,26.00
2018-12-27T01:37:25.827Z,32.97
2018-12-27T01:39:29.738Z,27.93
2018-12-27T01:41:33.667Z,26.10
2018-12-27T01:43:37.590Z,27.07
2018-12-27T01:45:41.497Z,23.80
2018-12-27T01:47:45.658Z,25.37
2018-12-27T01:49:49.583Z,23.40
2018-12-27T01:51:54.015Z,28.63
2018-12-27T01:53:57.926Z,29.70
2018-12-27T01:56:01.844Z,27.50
2018-12-27T01:58:05.751Z,25.63
2018-12-27T02:00:09.659Z,24.67
2018-12-27T02:02:13.710Z,21.90
2018-12-27T02:04:17.610Z,28.37
2018-12-27T02:06:22.558Z,29.83
2018-12-27T02:08:26.736Z,25.40
2018-12-27T02:10:30.649Z,25.73
2018-12-27T02:12:34.862Z,29.57
2018-12-27T02:14:39.038Z,23.40
2018-12-27T02:16:42.940Z,25.90
2018-12-27T02:18:46.843Z,30.63
2018-12-27T02:20:51.016Z,29.37
2018-12-27T02:22:54.919Z,24.40
2018-12-27T02:24:59.074Z,24.50
2018-12-27T02:27:03.022Z,25.50
2018-12-27T02:29:06.943Z,27.07
2018-12-27T02:31:10.843Z,31.37
2018-12-27T02:33:14.765Z,29.47
2018-12-27T02:35:18.703Z,26.60
2018-12-27T02:37:22.622Z,29.13
2018-12-27T02:39:26.537Z,29.30
2018-12-27T02:41:30.458Z,26.33
2018-12-27T02:43:34.388Z,33.73
2018-12-27T02:45:38.304Z,31.83
2018-12-27T02:47:42.214Z,26.30
2018-12-27T02:49:46.388Z,24.57
2018-12-27T02:51:50.316Z,32.27
2018-12-27T02:53:54.255Z,31.37
2018-12-27T02:55:58.419Z,30.00
2018-12-27T02:58:02.376Z,34.43
2018-12-27T03:00:06.296Z,31.03
2018-12-27T03:02:10.212Z,32.40
2018-12-27T03:04:14.174Z,27.60
2018-12-27T03:06:18.082Z,30.53
2018-12-27T03:08:22.013Z,30.57
2018-12-27T03:10:25.940Z,30.83
2018-12-27T03:12:29.867Z,29.60
2018-12-27T03:14:33.801Z,37.90
2018-12-27T03:16:37.726Z,31.23
2018-12-27T03:18:41.913Z,30.23
2018-12-27T03:20:45.839Z,30.53
2018-12-27T03:22:49.788Z,32.03
2018-12-27T03:24:53.710Z,33.73
2018-12-27T03:26:57.865Z,33.17
2018-12-27T03:29:02.035Z,29.83
2018-12-27T03:31:06.098Z,27.30
2018-12-27T03:33:10.083Z,34.20
2018-12-27T03:35:14.016Z,30.87
2018-12-27T03:37:17.940Z,29.33
2018-12-27T03:39:22.087Z,28.17
2018-12-27T03:41:26.251Z,26.30
2018-12-27T03:43:30.154Z,28.13
2018-12-27T03:45:34.102Z,27.00
2018-12-27T03:47:38.016Z,26.47
2018-12-27T03:49:42.172Z,24.73
2018-12-27T03:51:46.092Z,32.13
2018-12-27T03:53:50.027Z,35.70
2018-12-27T03:55:53.963Z,26.57
2018-12-27T03:57:57.878Z,28.27
2018-12-27T04:00:02.122Z,23.47
2018-12-27T04:02:06.053Z,25.90
2018-12-27T04:04:10.216Z,28.47
2018-12-27T04:06:14.381Z,23.30
2018-12-27T04:08:18.371Z,25.83
2018-12-27T04:10:22.287Z,31.17
2018-12-27T04:12:26.468Z,23.83
2018-12-27T04:14:30.620Z,25.10
2018-12-27T04:16:34.387Z,19.17
2018-12-27T04:18:38.406Z,27.13
2018-12-27T04:20:42.316Z,21.23
2018-12-27T04:22:46.139Z,27.37
2018-12-27T04:24:50.194Z,27.13
2018-12-27T04:26:54.220Z,25.17
2018-12-27T04:28:58.042Z,24.07
2018-12-27T04:31:01.938Z,23.93
2018-12-27T04:33:12.183Z,24.67
2018-12-27T04:35:16.087Z,29.40
2018-12-27T04:37:19.875Z,29.03
2018-12-27T04:39:23.712Z,24.43
2018-12-27T04:41:28.681Z,31.27
2018-12-27T04:43:32.775Z,25.90
2018-12-27T04:45:36.553Z,27.47
2018-12-27T04:47:40.327Z,36.40
2018-12-27T04:49:44.083Z,30.50
2018-12-27T04:51:48.003Z,26.07
2018-12-27T04:53:51.745Z,23.27
2018-12-27T04:55:55.494Z,24.17
2018-12-27T04:57:59.341Z,27.60
2018-12-27T05:00:03.227Z,26.23
2018-12-27T05:02:06.997Z,25.63
2018-12-27T05:04:17.786Z,25.47
2018-12-27T05:06:16.301Z,24.13
2018-12-27T05:08:20.138Z,25.60
2018-12-27T05:10:24.127Z,32.00
2018-12-27T05:12:27.895Z,30.90
2018-12-27T05:14:31.647Z,28.23
2018-12-27T05:16:35.392Z,33.63
2018-12-27T05:18:39.153Z,27.00
2018-12-27T05:20:43.176Z,32.63
2018-12-27T05:22:46.935Z,26.17
2018-12-27T05:24:50.701Z,30.53
2018-12-27T05:26:54.480Z,30.90
2018-12-27T05:28:58.247Z,29.73
2018-12-27T05:31:02.098Z,28.40
2018-12-27T05:33:05.860Z,39.07
2018-12-27T05:35:09.680Z,27.67
2018-12-27T05:37:13.422Z,28.90
2018-12-27T05:39:17.270Z,32.90
2018-12-27T05:41:21.018Z,32.87
2018-12-27T05:43:24.807Z,26.77
2018-12-27T05:45:28.547Z,29.90
2018-12-27T05:47:33.288Z,42.63
2018-12-27T05:49:38.785Z,34.33
2018-12-27T05:51:42.623Z,34.33
2018-12-27T05:53:46.714Z,28.70
2018-12-27T05:55:50.550Z,32.40
2018-12-27T05:57:54.555Z,29.87
2018-12-27T05:59:58.406Z,32.37
2018-12-27T06:02:02.444Z,38.57
2018-12-27T06:04:06.187Z,28.97
2018-12-27T06:06:09.973Z,26.93
2018-12-27T06:08:13.741Z,34.53
2018-12-27T06:10:17.534Z,26.53
2018-12-27T06:12:21.295Z,24.70
2018-12-27T06:14:25.071Z,25.67
2018-12-27T06:16:28.908Z,31.37
2018-12-27T06:18:32.933Z,31.70
2018-12-27T06:20:38.067Z,29.23
2018-12-27T06:22:41.815Z,34.70
2018-12-27T06:24:45.903Z,27.60
2018-12-27T06:26:49.684Z,28.90
2018-12-27T06:28:53.458Z,31.43
2018-12-27T06:30:57.231Z,39.90
2018-12-27T06:33:01.055Z,25.27
2018-12-27T06:35:05.011Z,29.30
2018-12-27T06:37:08.795Z,26.03
2018-12-27T06:39:12.827Z,28.23
2018-12-27T06:41:16.670Z,23.10
2018-12-27T06:43:20.447Z,28.30
2018-12-27T06:45:24.214Z,29.90
2018-12-27T06:47:28.221Z,24.37
2018-12-27T06:49:31.979Z,27.60
2018-12-27T06:51:35.764Z,28.83
2018-12-27T06:53:39.542Z,28.40
2018-12-27T06:55:43.382Z,31.90
2018-12-27T06:57:47.189Z,31.03
2018-12-27T06:59:50.951Z,28.83
2018-12-27T07:01:54.739Z,23.73
2018-12-27T07:03:58.564Z,33.23
2018-12-27T07:06:02.663Z,26.23
2018-12-27T07:08:06.481Z,27.20
2018-12-27T07:10:13.314Z,27.77
2018-12-27T07:12:26.757Z,27.60
2018-12-27T07:14:39.299Z,30.73
2018-12-27T07:16:51.624Z,28.20
2018-12-27T07:19:04.157Z,25.90
2018-12-27T07:21:11.315Z,27.30
2018-12-27T07:23:15.135Z,31.20
2018-12-27T07:25:18.895Z,28.07
2018-12-27T07:27:22.919Z,35.33
2018-12-27T07:29:26.679Z,31.47
2018-12-27T07:31:30.531Z,27.33
2018-12-27T07:33:34.306Z,32.27
2018-12-27T07:35:38.111Z,31.37
2018-12-27T07:37:41.921Z,26.77
2018-12-27T07:39:45.944Z,26.63
2018-12-27T07:41:49.698Z,36.03
2018-12-27T07:43:53.464Z,27.03
2018-12-27T07:45:57.250Z,27.93
2018-12-27T07:48:01.262Z,29.83
2018-12-27T07:50:05.696Z,34.43
2018-12-27T07:52:10.826Z,26.57
2018-12-27T07:54:14.583Z,24.37
2018-12-27T07:56:18.355Z,25.27
2018-12-27T07:58:22.114Z,31.20
2018-12-27T08:00:25.866Z,28.37
2018-12-27T08:02:29.778Z,31.97
2018-12-27T08:04:33.711Z,29.50
2018-12-27T08:06:37.539Z,31.50
2018-12-27T08:08:41.340Z,26.90
2018-12-27T08:10:45.126Z,26.30
2018-12-27T08:12:48.959Z,25.50
2018-12-27T08:14:52.887Z,26.90
2018-12-27T08:16:56.679Z,43.43
2018-12-27T08:19:00.470Z,22.90
2018-12-27T08:21:04.703Z,20.03
2018-12-27T08:23:08.603Z,26.50
2018-12-27T08:25:12.455Z,24.73
2018-12-27T08:27:16.248Z,28.93
2018-12-27T08:29:20.188Z,23.17
2018-12-27T08:31:24.271Z,32.83
2018-12-27T08:33:28.095Z,28.37
2018-12-27T08:35:31.856Z,24.80
2018-12-27T08:37:35.703Z,25.63
2018-12-27T08:39:39.464Z,29.70
2018-12-27T08:41:43.227Z,31.17
2018-12-27T08:43:47.078Z,24.10
2018-12-27T08:45:51.328Z,26.50
2018-12-27T08:47:55.087Z,23.40
2018-12-27T08:49:58.839Z,27.97
2018-12-27T08:52:02.858Z,25.73
2018-12-27T08:54:35.134Z,25.53
2018-12-27T08:56:40.634Z,21.73
2018-12-27T08:58:44.661Z,26.40
2018-12-27T09:00:48.507Z,28.83
2018-12-27T09:02:52.247Z,29.93
2018-12-27T09:04:56.028Z,28.90
2018-12-27T09:06:59.792Z,33.30
2018-12-27T09:09:05.258Z,28.77
2018-12-27T09:11:09.018Z,23.90
2018-12-27T09:13:12.774Z,23.90
2018-12-27T09:15:16.614Z,27.23
2018-12-27T09:17:20.372Z,33.43
2018-12-27T09:19:24.228Z,35.47
2018-12-27T09:21:27.997Z,35.23
2018-12-27T09:23:32.028Z,26.60
2018-12-27T09:25:36.053Z,27.20
2018-12-27T09:27:40.366Z,32.27
2018-12-27T09:29:44.501Z,30.10
2018-12-27T09:31:48.627Z,39.73
2018-12-27T09:34:04.246Z,29.77
2018-12-27T09:36:36.604Z,28.87
2018-12-27T09:39:09.077Z,30.80
2018-12-27T09:41:49.298Z,30.87
2018-12-27T09:44:14.728Z,30.07
2018-12-27T09:49:34.715Z,23.47
2018-12-27T09:51:38.600Z,27.50
2018-12-27T09:53:42.829Z,25.80
2018-12-27T09:55:46.627Z,29.50
2018-12-27T09:57:50.454Z,28.97
2018-12-27T09:59:54.571Z,23.83
2018-12-27T10:01:58.612Z,24.73
2018-12-27T10:04:02.655Z,25.83
2018-12-27T10:06:06.507Z,31.13
2018-12-27T10:08:10.263Z,28.37
2018-12-27T10:10:14.037Z,25.13
2018-12-27T10:12:17.822Z,25.23
2018-12-27T10:14:21.683Z,23.23
2018-12-27T10:16:25.583Z,20.33
2018-12-27T10:18:29.367Z,22.87
2018-12-27T10:20:33.147Z,21.27
2018-12-27T10:22:36.919Z,20.13
2018-12-27T10:24:40.675Z,20.43
2018-12-27T10:26:44.491Z,18.20
2018-12-27T10:28:48.246Z,18.20
2018-12-27T10:30:52.026Z,16.97
2018-12-27T10:32:55.810Z,17.53
2018-12-27T10:35:00.032Z,17.00
2018-12-27T10:37:04.091Z,14.17
2018-12-27T10:39:11.620Z,12.77
2018-12-27T10:41:20.796Z,13.30
2018-12-27T10:43:24.871Z,15.30
2018-12-27T10:45:32.506Z,25.03
2018-12-27T10:47:49.170Z,21.00
2018-12-27T10:49:56.998Z,15.80
2018-12-27T10:52:01.723Z,19.83
2018-12-27T10:54:05.619Z,15.37
2018-12-27T10:56:09.442Z,15.73
2018-12-27T10:58:14.066Z,11.80
2018-12-27T11:00:17.931Z,15.00
2018-12-27T11:02:21.690Z,16.00
2018-12-27T11:04:25.711Z,16.70
2018-12-27T11:06:29.496Z,15.10
2018-12-27T11:08:33.314Z,13.67
2018-12-27T11:10:40.348Z,14.00
2018-12-27T11:12:44.426Z,18.00
2018-12-27T11:14:51.679Z,14.40
2018-12-27T11:16:55.519Z,13.93
2018-12-27T11:19:08.421Z,28.73
2018-12-27T11:21:12.314Z,7.93
2018-12-27T11:23:16.418Z,13.43
2018-12-27T11:25:21.718Z,8.83
2018-12-27T11:27:25.077Z,11.23
2018-12-27T11:29:28.889Z,14.60
2018-12-27T11:31:32.897Z,12.53
2018-12-27T11:33:36.689Z,10.80
2018-12-27T11:35:40.685Z,10.07
2018-12-27T11:37:44.519Z,14.50
2018-12-27T11:39:48.532Z,12.60
2018-12-27T11:41:52.379Z,26.90
2018-12-27T11:43:56.182Z,11.90
2018-12-27T11:45:59.949Z,11.50
2018-12-27T11:48:06.804Z,13.30
2018-12-27T11:50:10.932Z,13.17
2018-12-27T11:55:31.184Z,15.30
2018-12-27T11:57:36.521Z,15.93
2018-12-27T11:59:40.599Z,14.73
2018-12-27T12:01:46.423Z,16.97
2018-12-27T12:03:51.577Z,12.83
2018-12-27T12:06:02.987Z,10.40
2018-12-27T12:08:06.141Z,11.00
2018-12-27T12:10:15.703Z,13.23
2018-12-27T12:12:44.578Z,14.13
2018-12-27T12:15:05.323Z,10.30
2018-12-27T12:17:36.860Z,15.43
2018-12-27T12:20:08.614Z,11.70
2018-12-27T12:22:44.545Z,15.13
2018-12-27T12:25:01.865Z,10.83
2018-12-27T12:27:14.739Z,10.87
2018-12-27T12:29:34.317Z,8.47
2018-12-27T12:32:02.713Z,9.70
2018-12-27T12:34:17.144Z,12.40
2018-12-27T12:36:42.400Z,8.73
2018-12-27T12:39:02.340Z,11.90
2018-12-27T12:41:24.987Z,9.53
2018-12-27T12:43:44.977Z,12.80
2018-12-27T12:45:54.298Z,14.60
2018-12-27T12:48:26.988Z,11.70
2018-12-27T12:50:46.228Z,8.73
2018-12-27T12:52:56.366Z,10.03
2018-12-27T12:55:10.732Z,11.90
2018-12-27T12:57:23.726Z,12.03
2018-12-27T12:59:36.860Z,16.03
2018-12-27T13:01:52.900Z,8.37
2018-12-27T13:03:50.217Z,9.93
2018-12-27T13:06:00.061Z,13.23
2018-12-27T13:08:26.996Z,13.07
2018-12-27T13:10:38.254Z,14.87
2018-12-27T13:13:20.546Z,17.80
2018-12-27T13:15:36.055Z,32.80
2018-12-27T13:17:52.977Z,41.57
2018-12-27T13:20:06.656Z,24.27
2018-12-27T13:22:43.766Z,47.53
2018-12-27T13:25:15.368Z,31.67
2018-12-27T13:30:39.457Z,29.07
2018-12-27T13:33:06.763Z,63.97
2018-12-27T13:35:31.929Z,50.97
2018-12-27T13:38:12.924Z,44.83
2018-12-27T13:40:39.239Z,23.33
2018-12-27T13:43:10.534Z,20.70
2018-12-27T13:47:38.452Z,17.23
2018-12-27T13:49:42.450Z,11.20
2018-12-27T13:51:46.244Z,7.87
2018-12-27T13:53:50.142Z,11.93
2018-12-27T13:55:54.015Z,13.03
2018-12-27T13:57:58.063Z,11.10
2018-12-27T14:00:02.247Z,10.37
2018-12-27T14:02:06.359Z,11.97
2018-12-27T14:04:10.467Z,17.07
2018-12-27T14:06:14.701Z,15.87
2018-12-27T14:08:18.944Z,12.73
2018-12-27T14:10:25.378Z,25.23
2018-12-27T14:12:30.927Z,11.90
2018-12-27T14:14:36.292Z,17.33
2018-12-27T14:16:47.684Z,27.73
2018-12-27T14:19:02.570Z,25.50
2018-12-27T14:21:06.652Z,24.53
2018-12-27T14:23:17.206Z,35.33
2018-12-27T14:25:30.343Z,11.67
2018-12-27T14:35:04.691Z,21.33
2018-12-27T14:37:18.419Z,20.13
2018-12-27T14:39:26.484Z,14.57
2018-12-27T14:41:40.390Z,12.37
2018-12-27T14:43:44.689Z,11.37
2018-12-27T14:45:57.967Z,12.70
2018-12-27T14:48:02.187Z,14.60
2018-12-27T14:50:24.331Z,15.43
2018-12-27T14:52:28.075Z,15.40
2018-12-27T14:54:32.195Z,13.00
2018-12-27T14:56:36.273Z,11.20
2018-12-27T14:58:40.042Z,13.33
2018-12-27T15:00:43.846Z,17.70
2018-12-27T15:02:47.681Z,25.03
2018-12-27T15:04:51.673Z,20.83
2018-12-27T15:06:55.453Z,15.00
2018-12-27T15:09:11.675Z,19.87
2018-12-27T15:11:20.280Z,15.93
2018-12-27T15:13:24.193Z,16.17
2018-12-27T15:15:27.966Z,21.80
2018-12-27T15:17:31.743Z,12.90
2018-12-27T15:19:35.556Z,17.97
2018-12-27T15:21:39.416Z,13.73
2018-12-27T15:23:43.299Z,14.37
2018-12-27T15:25:47.083Z,17.23
2018-12-27T15:27:50.946Z,16.37
2018-12-27T15:29:57.827Z,15.63
2018-12-27T15:32:01.639Z,16.17
2018-12-27T15:34:05.545Z,13.03
2018-12-27T15:36:09.460Z,19.57
2018-12-27T15:38:13.327Z,17.20
2018-12-27T15:40:17.110Z,19.73
2018-12-27T15:42:20.931Z,23.53
2018-12-27T15:44:24.701Z,25.20
2018-12-27T15:46:28.491Z,17.43
2018-12-27T15:48:36.844Z,21.40
2018-12-27T15:52:27.796Z,17.93
2018-12-27T15:53:40.912Z,17.80
2018-12-27T15:56:07.785Z,14.97
2018-12-27T15:58:17.551Z,18.60
2018-12-27T16:00:39.621Z,19.90
2018-12-27T16:02:55.141Z,18.90
2018-12-27T16:05:33.714Z,20.33
2018-12-27T16:07:53.091Z,23.33
2018-12-27T16:10:19.495Z,23.13
2018-12-27T16:12:38.000Z,19.03
2018-12-27T16:15:15.327Z,18.23
2018-12-27T16:17:35.799Z,23.70
2018-12-27T16:20:08.343Z,21.73
2018-12-27T16:22:53.476Z,19.60
2018-12-27T16:25:23.356Z,22.67
2018-12-27T16:27:45.861Z,21.77
2018-12-27T16:30:00.931Z,21.67
2018-12-27T16:32:23.959Z,22.23
2018-12-27T16:34:42.725Z,21.53
2018-12-27T16:36:59.080Z,29.63
2018-12-27T16:39:43.130Z,32.37
2018-12-27T16:43:00.220Z,28.73
2018-12-27T16:45:14.308Z,27.80
2018-12-27T16:47:28.571Z,35.60
2018-12-27T16:50:01.682Z,27.70
2018-12-27T16:52:31.117Z,30.90
2018-12-27T16:54:35.096Z,24.73
2018-12-27T16:57:09.239Z,60.97
2018-12-27T16:59:22.523Z,40.67
2018-12-27T17:01:45.204Z,39.33
2018-12-27T17:06:18.481Z,38.30
2018-12-27T17:08:31.995Z,34.93
2018-12-27T17:11:21.536Z,31.23
2018-12-27T17:13:39.294Z,29.13
2018-12-27T17:16:28.504Z,36.20
2018-12-27T17:18:38.973Z,41.53
2018-12-27T17:20:50.406Z,31.57
2018-12-27T17:22:59.656Z,41.60
2018-12-27T17:25:10.997Z,32.50
2018-12-27T17:27:17.533Z,40.33
2018-12-27T17:29:28.606Z,27.90
2018-12-27T17:31:41.220Z,33.20
2018-12-27T17:33:59.387Z,23.80
2018-12-27T17:36:05.623Z,26.53
2018-12-27T17:38:28.836Z,35.83
2018-12-27T17:41:05.548Z,62.97
2018-12-27T17:43:33.032Z,38.10
2018-12-27T17:46:13.822Z,33.50
2018-12-27T17:48:55.676Z,41.67
2018-12-27T17:51:27.235Z,37.93
2018-12-27T17:54:26.431Z,34.20
2018-12-27T17:57:09.362Z,29.43
2018-12-27T18:03:03.064Z,23.20
2018-12-27T18:06:50.083Z,22.97
2018-12-27T18:08:20.109Z,32.50
2018-12-27T18:14:00.457Z,38.63
2018-12-27T18:19:28.945Z,48.73
2018-12-27T18:21:44.148Z,42.73
2018-12-27T18:23:54.246Z,41.40
2018-12-27T18:26:10.379Z,49.97
2018-12-27T18:28:18.300Z,32.53
2018-12-27T18:30:29.897Z,27.77
2018-12-27T18:32:36.412Z,34.53
2018-12-27T18:34:43.601Z,29.23
2018-12-27T18:36:53.508Z,25.73
2018-12-27T18:38:57.379Z,28.70
2018-12-27T18:41:01.162Z,32.17
2018-12-27T18:43:05.614Z,31.77
2018-12-27T18:45:12.519Z,32.00
2018-12-27T18:47:16.312Z,40.23
2018-12-27T18:49:20.729Z,40.67
2018-12-27T18:51:25.105Z,43.53
2018-12-27T18:53:28.920Z,34.67
2018-12-27T18:55:32.981Z,35.67
2018-12-27T18:57:37.220Z,39.83
2018-12-27T18:59:41.556Z,38.70
2018-12-27T19:01:45.526Z,37.23
2018-12-27T19:03:50.040Z,32.93
2018-12-27T19:05:54.751Z,33.90
2018-12-27T19:08:03.068Z,37.40
2018-12-27T19:10:08.341Z,36.30
2018-12-27T19:12:48.515Z,35.87
2018-12-27T19:15:43.163Z,41.20
2018-12-27T19:18:05.728Z,83.83
2018-12-27T19:20:23.634Z,37.60
2018-12-27T19:26:27.175Z,34.60
2018-12-27T19:28:51.218Z,39.93
2018-12-27T19:31:11.879Z,41.53
2018-12-27T19:33:45.235Z,38.33
2018-12-27T19:35:56.070Z,38.23
2018-12-27T19:38:11.511Z,37.10
2018-12-27T19:40:25.725Z,33.73
2018-12-27T19:42:35.579Z,35.00
2018-12-27T19:44:47.567Z,41.80
2018-12-27T19:46:55.952Z,30.07
2018-12-27T19:49:05.075Z,30.53
2018-12-27T19:51:15.085Z,35.23
2018-12-27T19:53:22.277Z,35.10
2018-12-27T19:55:26.262Z,37.37
2018-12-27T19:57:59.902Z,35.47
2018-12-27T20:00:04.555Z,43.90
2018-12-27T20:02:15.374Z,42.50
2018-12-27T20:06:43.268Z,41.03
2018-12-27T20:09:05.339Z,40.53
2018-12-27T20:11:27.543Z,44.50
2018-12-27T20:13:46.256Z,42.47
2018-12-27T20:15:55.224Z,42.07
2018-12-27T20:18:02.689Z,42.60
2018-12-27T20:20:13.163Z,46.70
2018-12-27T20:22:31.901Z,50.50
2018-12-27T20:24:37.526Z,50.73
2018-12-27T20:26:43.799Z,51.23
2018-12-27T20:28:50.427Z,46.87
2018-12-27T20:30:59.955Z,42.00
2018-12-27T20:33:10.236Z,41.67
2018-12-27T20:35:19.411Z,39.70
2018-12-27T20:37:34.903Z,40.87
2018-12-27T20:39:39.224Z,51.70
2018-12-27T20:41:49.755Z,51.73
2018-12-27T20:43:58.011Z,38.43
2018-12-27T20:46:08.011Z,42.50
2018-12-27T20:48:13.153Z,37.30
2018-12-27T20:50:18.676Z,44.13
2018-12-27T20:52:26.543Z,38.57
2018-12-27T20:54:35.572Z,41.40
2018-12-27T20:56:39.438Z,51.70
2018-12-27T20:58:46.383Z,41.63
2018-12-27T21:00:53.225Z,39.43
2018-12-27T21:02:59.077Z,44.30
2018-12-27T21:05:09.978Z,37.80
2018-12-27T21:07:36.592Z,46.47
2018-12-27T21:09:53.965Z,41.53
2018-12-27T21:11:59.450Z,47.70
2018-12-27T21:14:06.941Z,47.30
2018-12-27T21:16:31.121Z,53.67
2018-12-27T21:18:40.003Z,53.80
2018-12-27T21:20:52.621Z,48.67
2018-12-27T21:23:26.137Z,52.23
2018-12-27T21:25:45.011Z,49.70
2018-12-27T21:28:02.002Z,62.60
2018-12-27T21:30:16.638Z,52.37
2018-12-27T21:32:25.368Z,62.63
2018-12-27T21:34:31.422Z,49.27
2018-12-27T21:36:39.438Z,41.20
2018-12-27T21:38:50.255Z,51.73
2018-12-27T21:40:57.139Z,43.90
2018-12-27T21:43:10.196Z,47.80
2018-12-27T21:45:14.219Z,41.17
2018-12-27T21:47:24.659Z,49.67
2018-12-27T21:49:49.968Z,44.53
2018-12-27T21:52:06.214Z,44.40
2018-12-27T21:54:19.413Z,53.07
2018-12-27T21:57:09.285Z,48.37
2018-12-27T21:59:45.419Z,47.83
2018-12-27T22:01:52.362Z,52.70
2018-12-27T22:04:04.025Z,49.23
2018-12-27T22:06:17.460Z,50.73
2018-12-27T22:08:31.006Z,47.57
2018-12-27T22:10:35.201Z,44.90
2018-12-27T22:13:03.872Z,43.13
2018-12-27T22:15:37.143Z,44.40
2018-12-27T22:17:55.881Z,68.77
2018-12-27T22:19:57.571Z,74.67
2018-12-27T22:22:02.975Z,75.03
2018-12-27T22:24:06.821Z,60.60
2018-12-27T22:26:10.758Z,64.03
2018-12-27T22:28:17.092Z,56.40
2018-12-27T22:30:21.196Z,55.70
2018-12-27T22:32:27.688Z,47.17
2018-12-27T22:34:34.010Z,50.03
2018-12-27T22:36:37.999Z,43.37
2018-12-27T22:38:41.800Z,51.03
2018-12-27T22:40:46.616Z,52.60
2018-12-27T22:42:52.781Z,51.90
2018-12-27T22:52:58.345Z,60.40
2018-12-27T23:01:20.798Z,47.13
2018-12-27T23:07:28.039Z,53.50
2018-12-27T23:09:32.548Z,52.27
2018-12-27T23:11:42.313Z,46.73
2018-12-27T23:17:17.560Z,53.53
2018-12-27T23:23:36.562Z,51.17
2018-12-27T23:29:31.895Z,56.57
2018-12-27T23:32:04.793Z,54.87
2018-12-27T23:34:38.737Z,60.07
2018-12-27T23:43:35.045Z,60.00
2018-12-27T23:45:57.224Z,48.50
2018-12-27T23:48:09.935Z,64.73
2018-12-27T23:51:13.517Z,60.47
